createdAt,value
2023-01-17T02:22:51.169Z,17.10
2023-01-17T02:25:30.509Z,21.10
2023-01-17T02:28:09.741Z,17.00
2023-01-17T02:30:39.760Z,18.00
2023-01-17T02:36:00.173Z,20.50
2023-01-17T02:38:39.933Z,20.00
2023-01-17T02:41:10.446Z,21.80
2023-01-17T02:43:37.810Z,17.90
2023-01-17T02:46:05.107Z,20.70
2023-01-17T02:48:33.857Z,20.20
2023-01-17T02:51:04.073Z,19.90
2023-01-17T02:53:52.740Z,22.30
2023-01-17T02:56:27.460Z,20.30
2023-01-17T02:58:57.591Z,22.60
2023-01-17T03:01:31.595Z,19.80
2023-01-17T03:04:26.289Z,20.10
2023-01-17T03:07:02.968Z,23.90
2023-01-17T03:09:30.693Z,18.90
2023-01-17T03:11:58.545Z,19.90
2023-01-17T03:14:25.853Z,19.80
2023-01-17T03:16:53.077Z,19.90
2023-01-17T03:19:20.261Z,24.50
2023-01-17T03:21:47.410Z,21.70
2023-01-17T03:24:14.570Z,18.10
2023-01-17T03:26:45.103Z,23.10
2023-01-17T03:29:12.255Z,24.60
2023-01-17T03:31:39.401Z,20.80
2023-01-17T03:34:06.551Z,22.30
2023-01-17T03:36:33.704Z,19.70
2023-01-17T03:39:00.755Z,23.00
2023-01-17T03:41:27.807Z,20.90
2023-01-17T03:43:54.958Z,22.60
2023-01-17T03:46:26.514Z,20.60
2023-01-17T03:48:53.667Z,23.70
2023-01-17T03:51:20.824Z,23.30
2023-01-17T03:53:48.190Z,21.10
2023-01-17T03:56:15.437Z,18.70
2023-01-17T03:58:42.687Z,19.90
2023-01-17T04:01:09.916Z,26.10
2023-01-17T04:03:37.205Z,22.10
2023-01-17T04:06:04.453Z,19.80
2023-01-17T04:08:31.809Z,21.10
2023-01-17T04:10:58.953Z,27.10
2023-01-17T04:13:26.108Z,24.70
2023-01-17T04:15:53.170Z,20.10
2023-01-17T04:18:20.933Z,19.20
2023-01-17T04:20:47.983Z,23.20
2023-01-17T04:23:15.035Z,26.20
2023-01-17T04:25:42.177Z,22.90
2023-01-17T04:28:10.154Z,19.50
2023-01-17T04:30:37.529Z,24.00
2023-01-17T04:33:04.653Z,25.40
2023-01-17T04:35:31.907Z,22.80
2023-01-17T04:37:59.073Z,24.30
2023-01-17T04:40:26.822Z,22.60
2023-01-17T04:42:54.589Z,23.40
2023-01-17T04:45:21.738Z,28.00
2023-01-17T04:47:48.894Z,25.10
2023-01-17T04:50:16.632Z,22.90
2023-01-17T04:52:43.814Z,21.70
2023-01-17T04:55:11.269Z,27.50
2023-01-17T04:57:38.323Z,26.20
2023-01-17T05:00:06.071Z,23.60
2023-01-17T05:02:33.312Z,26.90
2023-01-17T05:05:00.589Z,23.90
2023-01-17T05:07:27.739Z,29.70
2023-01-17T05:09:54.789Z,24.70
2023-01-17T05:12:21.940Z,27.20
2023-01-17T05:14:49.089Z,22.00
2023-01-17T05:17:16.146Z,25.50
2023-01-17T05:19:43.289Z,26.90
2023-01-17T05:22:16.765Z,22.90
2023-01-17T05:24:44.401Z,25.20
2023-01-17T05:27:12.334Z,23.50
2023-01-17T05:29:39.581Z,30.30
2023-01-17T05:32:06.792Z,28.00
2023-01-17T05:34:34.594Z,24.70
2023-01-17T05:37:01.742Z,25.40
2023-01-17T05:39:31.252Z,27.50
2023-01-17T05:41:59.500Z,27.70
2023-01-17T05:44:27.945Z,23.90
2023-01-17T05:46:56.288Z,25.80
2023-01-17T05:49:23.579Z,29.70
2023-01-17T05:51:51.440Z,29.80
2023-01-17T05:54:19.580Z,30.20
2023-01-17T05:56:46.734Z,25.20
2023-01-17T05:59:14.349Z,32.10
2023-01-17T06:01:41.642Z,27.90
2023-01-17T12:33:45.275Z,33.30
2023-01-17T12:36:34.558Z,34.50
2023-01-17T12:39:05.177Z,35.80
2023-01-17T12:41:38.272Z,39.20
2023-01-17T12:44:05.225Z,36.80
2023-01-17T12:46:59.091Z,41.60
2023-01-17T12:49:36.499Z,40.30
2023-01-17T12:52:19.415Z,39.60
2023-01-17T12:54:51.469Z,39.50
2023-01-17T12:57:31.731Z,35.70
2023-01-17T13:00:29.269Z,41.90
2023-01-17T13:03:09.265Z,40.60
2023-01-17T13:05:38.243Z,39.70
2023-01-17T13:08:14.717Z,43.40
2023-01-17T13:11:07.053Z,41.60
2023-01-17T13:13:35.275Z,41.00
2023-01-17T13:16:27.913Z,43.00
2023-01-17T13:18:54.930Z,38.30
2023-01-17T13:21:29.767Z,44.00
2023-01-17T13:23:58.654Z,42.80
2023-01-17T13:26:50.077Z,41.30
2023-01-17T13:30:04.955Z,43.20
2023-01-17T13:32:50.738Z,41.20
2023-01-17T13:35:22.339Z,50.30
2023-01-17T13:38:01.938Z,47.10
2023-01-17T13:40:41.896Z,41.40
2023-01-17T13:45:40.213Z,46.00
2023-01-17T13:48:14.301Z,41.00
2023-01-17T13:50:41.556Z,42.90
2023-01-17T13:53:26.834Z,50.50
2023-01-17T13:56:18.359Z,47.00
2023-01-17T13:58:49.913Z,49.70
2023-01-17T14:01:21.888Z,46.10
2023-01-17T14:03:49.536Z,48.10
2023-01-17T14:06:35.267Z,45.70
2023-01-17T14:09:12.436Z,48.10
2023-01-17T14:11:51.950Z,49.00
2023-01-17T20:18:22.813Z,33.10
2023-01-17T20:20:56.894Z,30.50
2023-01-17T20:23:24.697Z,36.60
2023-01-17T20:25:59.255Z,34.40
2023-01-17T20:28:27.189Z,31.40
2023-01-17T20:30:55.699Z,28.60
2023-01-17T20:33:23.650Z,35.00
2023-01-17T20:36:04.914Z,31.40
2023-01-17T20:38:45.608Z,32.40
2023-01-17T20:41:23.938Z,31.80
2023-01-17T20:43:52.952Z,31.40
2023-01-17T20:46:22.008Z,33.90
2023-01-17T20:48:51.422Z,33.80
2023-01-17T20:51:18.651Z,31.30
2023-01-17T20:53:47.036Z,32.20
2023-01-17T20:56:15.252Z,32.60
2023-01-17T20:58:42.873Z,31.40
2023-01-17T21:01:11.144Z,38.50
2023-01-17T21:03:38.811Z,34.00
2023-01-17T21:06:07.742Z,32.80
2023-01-17T21:08:36.496Z,31.70
2023-01-17T21:11:03.974Z,32.70
2023-01-17T21:13:32.030Z,33.90
2023-01-17T21:15:59.192Z,33.60
2023-01-17T21:18:26.952Z,28.80
2023-01-17T21:20:54.207Z,30.50
2023-01-17T21:23:23.817Z,29.80
2023-01-17T21:25:55.774Z,35.20
2023-01-17T21:28:24.368Z,32.50
2023-01-17T21:30:52.492Z,30.60
2023-01-17T21:33:20.057Z,33.00
2023-01-17T21:35:47.260Z,32.60
2023-01-17T21:38:14.713Z,36.90
2023-01-17T21:40:42.599Z,35.00
2023-01-17T21:43:09.940Z,32.60
2023-01-17T21:45:40.839Z,28.80
2023-01-17T21:48:12.367Z,33.90
2023-01-17T21:50:39.495Z,36.20
2023-01-17T21:53:07.760Z,31.90
2023-01-17T21:55:53.546Z,31.90
